createdAt,value
2018-01-02T00:02:12.915Z,100340.98
2018-01-02T00:04:41.232Z,100343.77
2018-01-02T00:07:09.529Z,100353.35
2018-01-02T00:09:37.840Z,100353.76
2018-01-02T00:12:06.902Z,100353.66
2018-01-02T00:14:35.219Z,100353.07
2018-01-02T00:17:04.286Z,100353.56
2018-01-02T00:19:32.578Z,100352.91
2018-01-02T00:22:01.645Z,100360.34
2018-01-02T00:24:29.948Z,100364.00
2018-01-02T00:26:58.238Z,100356.30
2018-01-02T00:29:28.066Z,100361.67
2018-01-02T00:31:56.364Z,100360.62
2018-01-02T00:34:25.437Z,100366.30
2018-01-02T00:36:53.806Z,100361.84
2018-01-02T00:39:22.128Z,100375.98
2018-01-02T00:41:51.183Z,100374.49
2018-01-02T00:44:19.464Z,100381.10
2018-01-02T00:46:47.764Z,100382.59
2018-01-02T00:49:16.083Z,100384.83
2018-01-02T00:51:44.390Z,100398.14
2018-01-02T00:54:12.700Z,100397.36
2018-01-02T00:56:42.506Z,100403.24
2018-01-02T00:59:10.932Z,100402.73
2018-01-02T01:01:40.035Z,100404.79
2018-01-02T01:04:08.350Z,100409.91
2018-01-02T01:06:36.668Z,100406.53
2018-01-02T01:09:04.983Z,100408.08
2018-01-02T01:11:33.305Z,100406.94
2018-01-02T01:14:01.618Z,100413.87
2018-01-02T01:16:29.939Z,100425.59
2018-01-02T01:18:58.289Z,100430.24
2018-01-02T01:21:26.602Z,100438.71
2018-01-02T01:23:54.915Z,100438.40
2018-01-02T01:26:23.415Z,100443.26
2018-01-02T01:28:51.771Z,100451.60
2018-01-02T01:31:20.069Z,100457.61
2018-01-02T01:33:48.399Z,100461.67
2018-01-02T01:36:17.466Z,100466.12
2018-01-02T01:38:47.273Z,100464.39
2018-01-02T01:41:15.767Z,100470.11
2018-01-02T01:43:44.857Z,100476.24
2018-01-02T01:46:13.385Z,100489.11
2018-01-02T01:48:55.587Z,100486.31
2018-01-02T01:51:23.913Z,100491.91
2018-01-02T01:53:52.267Z,100499.36
2018-01-02T01:56:21.461Z,100506.91
2018-01-02T01:58:49.769Z,100508.42
2018-01-02T02:01:18.069Z,100518.58
2018-01-02T02:03:46.390Z,100521.02
2018-01-02T02:06:15.457Z,100524.08
2018-01-02T02:08:46.723Z,100533.97
2018-01-02T02:11:16.268Z,100540.93
2018-01-02T02:13:44.584Z,100542.75
2018-01-02T02:16:12.913Z,100549.06
2018-01-02T02:18:41.237Z,100539.52
2018-01-02T02:21:09.535Z,100548.03
2018-01-02T02:23:37.857Z,100555.37
2018-01-02T02:26:06.969Z,100552.53
2018-01-02T02:28:35.285Z,100550.23
2018-01-02T02:31:03.603Z,100558.55
2018-01-02T02:33:31.897Z,100561.22
2018-01-02T02:36:01.004Z,100564.98
2018-01-02T02:38:29.379Z,100573.77
2018-01-02T02:41:08.319Z,100573.08
2018-01-02T02:43:36.665Z,100582.70
2018-01-02T02:46:05.777Z,100575.42
2018-01-02T02:48:34.364Z,100587.84
2018-01-02T02:51:03.457Z,100584.67
2018-01-02T02:53:31.781Z,100586.51
2018-01-02T02:56:00.062Z,100593.79
2018-01-02T02:58:28.481Z,100590.48
2018-01-02T03:00:56.783Z,100594.56
2018-01-02T03:03:26.655Z,100598.68
2018-01-02T03:05:54.957Z,100599.28
2018-01-02T03:08:23.279Z,100598.05
2018-01-02T03:10:52.341Z,100603.48
2018-01-02T03:13:20.669Z,100600.92
2018-01-02T03:15:49.772Z,100608.77
2018-01-02T03:18:18.873Z,100613.16
2018-01-02T03:20:47.209Z,100615.19
2018-01-02T03:23:15.521Z,100615.31
2018-01-02T03:25:44.589Z,100619.31
2018-01-02T03:28:12.914Z,100623.16
2018-01-02T03:30:41.982Z,100621.45
2018-01-02T03:33:10.319Z,100618.19
2018-01-02T03:35:38.631Z,100617.05
2018-01-02T03:38:07.025Z,100624.84
2018-01-02T03:40:36.940Z,100635.98
2018-01-02T03:43:05.372Z,100639.27
2018-01-02T03:45:33.903Z,100637.03
2018-01-02T03:48:02.429Z,100636.87
2018-01-02T03:50:30.773Z,100649.61
2018-01-02T03:52:59.153Z,100648.47
2018-01-02T03:55:27.457Z,100646.06
2018-01-02T03:57:55.777Z,100654.91
2018-01-02T04:00:24.107Z,100657.89
2018-01-02T04:02:52.515Z,100665.55
2018-01-02T04:05:21.601Z,100669.90
2018-01-02T04:07:49.931Z,100669.94
2018-01-02T04:10:18.257Z,100674.52
2018-01-02T04:12:46.543Z,100675.59
2018-01-02T04:15:15.136Z,100692.55
2018-01-02T04:17:43.420Z,100696.09
2018-01-02T04:20:11.787Z,100701.31
2018-01-02T04:22:40.151Z,100696.59
2018-01-02T04:25:08.557Z,100706.12
2018-01-02T04:27:36.862Z,100709.45
2018-01-02T04:30:05.945Z,100709.17
2018-01-02T04:32:35.029Z,100711.28
2018-01-02T04:35:03.321Z,100713.38
2018-01-02T04:37:31.616Z,100721.39
2018-01-02T04:40:00.697Z,100728.22
2018-01-02T04:42:30.524Z,100738.80
2018-01-02T04:45:00.318Z,100736.94
2018-01-02T04:47:28.619Z,100747.78
2018-01-02T04:49:57.718Z,100756.61
2018-01-02T04:52:27.580Z,100774.52
2018-01-02T04:54:55.875Z,100785.52
2018-01-02T04:57:24.196Z,100786.12
2018-01-02T04:59:54.027Z,100804.92
2018-01-02T05:02:23.114Z,100798.17
2018-01-02T05:04:52.169Z,100792.01
2018-01-02T05:07:20.484Z,100809.77
2018-01-02T05:09:49.707Z,100807.29
2018-01-02T05:12:18.779Z,100807.70
2018-01-02T05:14:47.096Z,100803.20
2018-01-02T05:17:16.156Z,100811.87
2018-01-02T05:19:45.211Z,100822.55
2018-01-02T05:22:13.541Z,100826.83
2018-01-02T05:24:41.838Z,100826.00
2018-01-02T05:27:10.145Z,100833.47
2018-01-02T05:29:39.265Z,100836.38
2018-01-02T05:32:07.613Z,100845.41
2018-01-02T05:34:36.693Z,100836.80
2018-01-02T05:37:05.751Z,100848.01
2018-01-02T05:39:34.048Z,100848.07
2018-01-02T05:42:02.357Z,100851.05
2018-01-02T05:44:30.658Z,100858.61
2018-01-02T05:46:59.731Z,100862.11
2018-01-02T05:49:28.067Z,100860.70
2018-01-02T05:51:56.380Z,100864.33
2018-01-02T05:54:24.715Z,100869.25
2018-01-02T05:56:53.028Z,100873.30
2018-01-02T05:59:21.336Z,100871.47
2018-01-02T06:01:49.641Z,100878.20
2018-01-02T06:04:17.941Z,100884.42
2018-01-02T06:06:46.268Z,100889.50
2018-01-02T06:09:14.588Z,100896.94
2018-01-02T06:11:43.655Z,100894.20
2018-01-02T06:14:11.994Z,100896.38
2018-01-02T06:16:40.452Z,100906.34
2018-01-02T06:19:08.758Z,100900.71
2018-01-02T06:21:37.094Z,100909.50
2018-01-02T06:24:05.407Z,100906.28
2018-01-02T06:26:34.612Z,100901.89
2018-01-02T06:29:03.762Z,100903.54
2018-01-02T06:31:32.078Z,100909.50
2018-01-02T06:34:00.400Z,100915.37
2018-01-02T06:36:28.727Z,100912.13
2018-01-02T06:38:57.454Z,100913.64
2018-01-02T06:41:26.524Z,100925.37
2018-01-02T06:43:54.878Z,100921.62
2018-01-02T06:46:23.212Z,100931.50
2018-01-02T06:48:52.288Z,100935.16
2018-01-02T06:51:21.354Z,100935.81
2018-01-02T06:53:49.661Z,100935.31
2018-01-02T06:56:17.992Z,100944.75
2018-01-02T06:58:46.313Z,100950.45
2018-01-02T07:01:14.862Z,100953.48
2018-01-02T07:03:43.176Z,100954.83
2018-01-02T07:06:11.628Z,100962.77
2018-01-02T07:08:39.912Z,100958.70
2018-01-02T07:11:08.224Z,100978.53
2018-01-02T07:13:36.520Z,100987.03
2018-01-02T07:16:05.606Z,100990.77
2018-01-02T07:18:33.939Z,100999.55
2018-01-02T07:21:02.266Z,101013.66
2018-01-02T07:23:30.677Z,101025.11
2018-01-02T07:25:59.744Z,101026.61
2018-01-02T07:28:28.050Z,101032.66
2018-01-02T07:30:56.930Z,101037.30
2018-01-02T07:33:25.226Z,101046.84
2018-01-02T07:35:53.600Z,101048.73
2018-01-02T07:38:21.975Z,101047.19
2018-01-02T07:40:50.323Z,101061.38
2018-01-02T07:43:18.646Z,101059.52
2018-01-02T07:45:46.997Z,101058.70
2018-01-02T07:48:15.324Z,101060.23
2018-01-02T07:50:43.839Z,101065.79
2018-01-02T07:53:12.995Z,101065.05
2018-01-02T07:55:41.319Z,101076.00
2018-01-02T07:58:10.394Z,101083.38
2018-01-02T08:00:38.706Z,101078.33
2018-01-02T08:03:07.018Z,101077.37
2018-01-02T08:05:35.443Z,101085.05
2018-01-02T08:08:03.796Z,101093.44
2018-01-02T08:10:32.168Z,101091.81
2018-01-02T08:13:00.475Z,101090.77
2018-01-02T08:15:29.485Z,101096.08
2018-01-02T08:17:58.592Z,101095.06
2018-01-02T08:20:26.910Z,101099.19
2018-01-02T08:22:55.217Z,101111.87
2018-01-02T08:25:23.518Z,101108.80
2018-01-02T08:27:51.818Z,101115.61
2018-01-02T08:30:20.901Z,101108.05
2018-01-02T08:32:49.971Z,101107.31
2018-01-02T08:35:18.384Z,101110.63
2018-01-02T08:37:46.836Z,101112.28
2018-01-02T08:40:15.129Z,101111.44
2018-01-02T08:42:43.430Z,101112.63
2018-01-02T08:45:11.762Z,101107.88
2018-01-02T08:47:40.071Z,101104.45
2018-01-02T08:50:08.374Z,101108.03
2018-01-02T08:52:36.691Z,101103.69
2018-01-02T08:55:05.042Z,101102.56
2018-01-02T08:57:33.350Z,101110.84
2018-01-02T09:00:02.426Z,101111.44
2018-01-02T09:02:32.258Z,101108.87
2018-01-02T09:05:01.497Z,101112.69
2018-01-02T09:07:29.912Z,101115.73
2018-01-02T09:09:58.257Z,101119.64
2018-01-02T09:12:32.122Z,101121.97
2018-01-02T09:15:00.434Z,101133.44
2018-01-02T09:17:29.561Z,101128.30
2018-01-02T09:19:57.877Z,101132.28
2018-01-02T09:22:27.891Z,101130.19
2018-01-02T09:24:56.200Z,101145.29
2018-01-02T09:27:25.302Z,101138.73
2018-01-02T09:29:54.384Z,101137.91
2018-01-02T09:32:23.483Z,101131.25
2018-01-02T09:34:51.790Z,101129.42
2018-01-02T09:37:20.867Z,101131.31
2018-01-02T09:39:50.125Z,101137.42
2018-01-02T09:42:18.458Z,101139.11
2018-01-02T09:44:46.752Z,101138.17
2018-01-02T09:47:15.804Z,101156.29
2018-01-02T09:49:44.202Z,101162.59
2018-01-02T09:52:12.580Z,101168.98
2018-01-02T09:54:40.934Z,101161.08
2018-01-02T09:57:09.236Z,101164.81
2018-01-02T09:59:37.586Z,101158.81
2018-01-02T10:02:05.900Z,101163.28
2018-01-02T10:04:34.256Z,101162.09
2018-01-02T10:07:03.408Z,101162.66
2018-01-02T10:09:31.777Z,101164.25
2018-01-02T10:12:00.096Z,101163.60
2018-01-02T10:14:29.208Z,101156.89
2018-01-02T10:16:57.522Z,101171.38
2018-01-02T10:19:25.937Z,101169.95
2018-01-02T10:21:54.290Z,101172.44
2018-01-02T10:24:22.614Z,101167.44
2018-01-02T10:26:50.975Z,101176.29
2018-01-02T10:29:19.349Z,101179.87
2018-01-02T10:31:47.674Z,101191.84
2018-01-02T10:34:16.014Z,101187.23
2018-01-02T10:36:44.558Z,101194.03
2018-01-02T10:39:12.876Z,101195.12
2018-01-02T10:41:41.261Z,101193.67
2018-01-02T10:44:09.605Z,101194.17
2018-01-02T10:46:37.910Z,101178.94
2018-01-02T10:49:06.316Z,101185.13
2018-01-02T10:51:34.687Z,101189.89
2018-01-02T10:54:03.018Z,101191.70
2018-01-02T10:56:32.089Z,101194.21
2018-01-02T10:59:00.454Z,101189.16
2018-01-02T11:01:28.741Z,101180.52
2018-01-02T11:03:57.848Z,101182.53
2018-01-02T11:06:26.149Z,101175.28
2018-01-02T11:08:54.506Z,101176.82
2018-01-02T11:11:22.821Z,101164.66
2018-01-02T11:13:53.808Z,101163.42
2018-01-02T11:16:22.127Z,101166.14
2018-01-02T11:18:51.213Z,101155.39
2018-01-02T11:21:19.514Z,101152.48
2018-01-02T11:23:48.604Z,101154.88
2018-01-02T11:26:17.817Z,101138.89
2018-01-02T11:28:46.237Z,101133.30
2018-01-02T11:31:14.544Z,101133.39
2018-01-02T11:33:42.957Z,101132.61
2018-01-02T11:36:12.764Z,101118.58
2018-01-02T11:38:41.155Z,101109.27
2018-01-02T11:41:09.483Z,101114.65
2018-01-02T11:43:37.823Z,101087.57
2018-01-02T11:46:06.124Z,101103.52
2018-01-02T11:48:35.458Z,101084.68
2018-01-02T11:51:03.792Z,101071.55
2018-01-02T11:53:32.128Z,101081.00
2018-01-02T11:56:00.439Z,101094.60
2018-01-02T11:58:28.747Z,101089.78
2018-01-02T12:00:57.069Z,101108.86
2018-01-02T12:03:25.407Z,101114.73
2018-01-02T12:05:54.490Z,101113.86
2018-01-02T12:08:22.791Z,101126.38
2018-01-02T12:10:51.093Z,101122.00
2018-01-02T12:13:20.175Z,101107.39
2018-01-02T12:15:49.277Z,101103.52
2018-01-02T12:18:18.355Z,101118.87
2018-01-02T12:20:47.421Z,101111.53
2018-01-02T12:23:15.757Z,101122.27
2018-01-02T12:25:44.092Z,101106.23
2018-01-02T12:28:12.437Z,101102.97
2018-01-02T12:30:40.772Z,101102.51
2018-01-02T12:33:10.011Z,101092.05
2018-01-02T12:35:39.069Z,101090.11
2018-01-02T12:38:07.390Z,101087.84
2018-01-02T12:40:36.474Z,101088.77
2018-01-02T12:43:04.795Z,101104.02
2018-01-02T12:45:33.113Z,101105.73
2018-01-02T12:48:01.421Z,101114.23
2018-01-02T12:50:29.739Z,101110.88
2018-01-02T12:52:58.046Z,101120.94
2018-01-02T12:55:26.413Z,101107.66
2018-01-02T12:57:54.768Z,101099.39
2018-01-02T13:00:23.873Z,101097.36
2018-01-02T13:02:52.181Z,101086.47
2018-01-02T13:05:20.575Z,101087.26
2018-01-02T13:07:48.900Z,101077.52
2018-01-02T13:10:18.085Z,101077.92
2018-01-02T13:12:46.421Z,101069.77
2018-01-02T13:15:14.846Z,101066.35
2018-01-02T13:17:43.155Z,101066.17
2018-01-02T13:20:12.793Z,101056.07
2018-01-02T13:22:41.116Z,101059.14
2018-01-02T13:25:09.601Z,101066.17
2018-01-02T13:27:37.949Z,101056.11
2018-01-02T13:30:06.595Z,101058.41
2018-01-02T13:32:34.951Z,101051.14
2018-01-02T13:35:03.337Z,101053.08
2018-01-02T13:37:31.835Z,101040.99
2018-01-02T13:40:01.677Z,101047.66
2018-01-02T13:42:30.747Z,101037.19
2018-01-02T13:44:59.839Z,101019.50
2018-01-02T13:47:28.269Z,101016.41
2018-01-02T13:49:57.365Z,101011.05
2018-01-02T13:52:26.473Z,101020.14
2018-01-02T13:54:54.801Z,101005.86
2018-01-02T13:57:23.115Z,100990.25
2018-01-02T13:59:51.429Z,100990.06
2018-01-02T14:02:19.757Z,100975.55
2018-01-02T14:04:48.063Z,100954.14
2018-01-02T14:07:17.167Z,100942.15
2018-01-02T14:09:46.353Z,100956.94
2018-01-02T14:12:14.644Z,100965.66
2018-01-02T14:14:43.741Z,100967.36
2018-01-02T14:17:12.078Z,100981.75
2018-01-02T14:19:40.431Z,100979.69
2018-01-02T14:22:08.736Z,100984.59
2018-01-02T14:24:37.053Z,100969.62
2018-01-02T14:27:05.409Z,100981.14
2018-01-02T14:29:33.735Z,100982.48
2018-01-02T14:32:02.809Z,100965.86
2018-01-02T14:34:31.136Z,100965.02
2018-01-02T14:36:59.453Z,100962.73
2018-01-02T14:39:27.763Z,100958.92
2018-01-02T14:41:56.094Z,100957.62
2018-01-02T14:44:24.407Z,100945.64
2018-01-02T14:46:52.729Z,100950.38
2018-01-02T14:49:21.801Z,100944.73
2018-01-02T14:51:50.127Z,100946.43
2018-01-02T14:54:18.456Z,100936.30
2018-01-02T14:56:46.776Z,100930.73
2018-01-02T14:59:15.835Z,100927.52
2018-01-02T15:01:44.397Z,100923.52
2018-01-02T15:04:12.753Z,100912.83
2018-01-02T15:06:41.074Z,100905.25
2018-01-02T15:09:09.380Z,100897.72
2018-01-02T15:11:39.179Z,100905.63
2018-01-02T15:14:07.471Z,100895.80
2018-01-02T15:16:35.779Z,100901.72
2018-01-02T15:19:04.107Z,100893.00
2018-01-02T15:21:32.461Z,100889.41
2018-01-02T15:24:00.775Z,100881.61
2018-01-02T15:26:29.092Z,100859.95
2018-01-02T15:28:57.405Z,100855.22
2018-01-02T15:31:26.481Z,100851.46
2018-01-02T15:33:55.118Z,100855.00
2018-01-02T15:36:23.445Z,100847.29
2018-01-02T15:38:52.510Z,100845.77
2018-01-02T15:41:20.833Z,100834.98
2018-01-02T15:43:49.983Z,100832.88
2018-01-02T15:46:18.305Z,100831.82
2018-01-02T15:48:47.372Z,100837.37
2018-01-02T15:51:15.691Z,100831.73
2018-01-02T15:53:45.498Z,100818.70
2018-01-02T15:56:13.809Z,100813.56
2018-01-02T15:58:42.898Z,100804.38
2018-01-02T16:01:11.976Z,100800.80
2018-01-02T16:03:41.127Z,100797.83
2018-01-02T16:06:10.185Z,100796.36
2018-01-02T16:08:39.266Z,100793.06
2018-01-02T16:11:07.624Z,100788.75
2018-01-02T16:13:36.024Z,100777.97
2018-01-02T16:16:04.481Z,100779.34
2018-01-02T16:18:32.818Z,100766.78
2018-01-02T16:21:01.963Z,100765.36
2018-01-02T16:23:30.446Z,100758.20
2018-01-02T16:25:58.755Z,100750.23
2018-01-02T16:28:27.087Z,100751.59
2018-01-02T16:30:56.191Z,100737.90
2018-01-02T16:33:26.086Z,100733.62
2018-01-02T16:35:54.395Z,100730.33
2018-01-02T16:38:23.630Z,100728.87
2018-01-02T16:40:51.960Z,100718.77
2018-01-02T16:43:21.032Z,100708.09
2018-01-02T16:45:50.166Z,100705.84
2018-01-02T16:48:19.674Z,100701.53
2018-01-02T16:50:48.745Z,100694.47
2018-01-02T16:53:17.146Z,100700.20
2018-01-02T16:55:46.265Z,100700.20
2018-01-02T16:58:15.330Z,100693.42
2018-01-02T17:00:44.368Z,100692.78
2018-01-02T17:03:12.710Z,100689.39
2018-01-02T17:05:41.130Z,100684.97
2018-01-02T17:08:10.228Z,100689.34
2018-01-02T17:10:39.390Z,100683.84
2018-01-02T17:13:07.834Z,100674.53
2018-01-02T17:15:36.153Z,100657.91
2018-01-02T17:20:39.083Z,100653.87
2018-01-02T17:23:07.379Z,100650.20
2018-01-02T17:25:36.570Z,100640.27
2018-01-02T17:28:05.639Z,100636.78
2018-01-02T17:30:33.940Z,100624.86
2018-01-02T17:33:03.025Z,100625.36
2018-01-02T17:35:31.357Z,100606.24
2018-01-02T17:37:59.691Z,100600.52
2018-01-02T17:40:28.034Z,100599.28
2018-01-02T17:42:56.376Z,100592.22
2018-01-02T17:45:25.518Z,100575.37
2018-01-02T17:47:53.851Z,100577.48
2018-01-02T17:50:22.193Z,100566.08
2018-01-02T17:52:50.485Z,100556.55
2018-01-02T17:55:18.974Z,100539.05
2018-01-02T17:57:47.538Z,100539.75
2018-01-02T18:00:15.911Z,100528.29
2018-01-02T18:02:44.218Z,100507.77
2018-01-02T18:05:12.514Z,100495.16
2018-01-02T18:07:42.343Z,100475.61
2018-01-02T18:10:10.679Z,100464.48
2018-01-02T18:12:38.960Z,100467.33
2018-01-02T18:15:07.253Z,100456.73
2018-01-02T18:17:35.556Z,100437.41
2018-01-02T18:20:03.852Z,100431.90
2018-01-02T18:22:32.171Z,100423.64
2018-01-02T18:25:00.486Z,100420.32
2018-01-02T18:27:28.816Z,100419.09
2018-01-02T18:29:57.913Z,100403.44
2018-01-02T18:32:26.968Z,100397.64
2018-01-02T18:34:55.290Z,100400.02
2018-01-02T18:37:23.629Z,100386.61
2018-01-02T18:39:51.929Z,100383.73
2018-01-02T18:42:20.836Z,100379.69
2018-01-02T18:44:49.915Z,100370.16
2018-01-02T18:47:18.202Z,100372.00
2018-01-02T18:49:46.548Z,100374.43
2018-01-02T18:52:14.876Z,100366.05
2018-01-02T18:54:43.244Z,100349.67
2018-01-02T18:57:11.598Z,100359.16
2018-01-02T18:59:40.267Z,100361.91
2018-01-02T19:02:08.756Z,100350.27
2018-01-02T19:04:37.414Z,100340.06
2018-01-02T19:07:05.800Z,100335.45
2018-01-02T19:09:34.411Z,100345.78
2018-01-02T19:12:03.076Z,100327.89
2018-01-02T19:14:31.428Z,100314.61
2018-01-02T19:16:59.842Z,100318.59
2018-01-02T19:19:29.272Z,100310.12
2018-01-02T19:21:57.627Z,100305.09
2018-01-02T19:24:26.860Z,100292.73
2018-01-02T19:26:55.236Z,100279.06
2018-01-02T19:29:24.537Z,100277.83
2018-01-02T19:31:53.080Z,100272.81
2018-01-02T19:34:22.202Z,100275.84
2018-01-02T19:36:52.012Z,100269.52
2018-01-02T19:39:20.376Z,100264.84
2018-01-02T19:41:48.994Z,100247.07
2018-01-02T19:44:17.526Z,100239.83
2018-01-02T19:46:45.846Z,100246.05
2018-01-02T19:49:14.342Z,100238.59
2018-01-02T19:51:43.462Z,100218.98
2018-01-02T19:54:12.802Z,100207.34
2018-01-02T19:56:41.171Z,100204.80
2018-01-02T19:59:09.478Z,100197.97
2018-01-02T20:01:37.793Z,100187.25
2018-01-02T20:04:06.145Z,100192.81
2018-01-02T20:06:34.815Z,100165.14
2018-01-02T20:09:03.530Z,100168.03
2018-01-02T20:11:33.994Z,100156.70
2018-01-02T20:14:02.891Z,100145.55
2018-01-02T20:16:31.605Z,100146.15
2018-01-02T20:18:59.978Z,100140.12
2018-01-02T20:21:29.408Z,100140.05
2018-01-02T20:23:57.752Z,100119.51
2018-01-02T20:26:26.334Z,100127.58
2018-01-02T20:28:56.247Z,100128.30
2018-01-02T20:31:24.580Z,100126.06
2018-01-02T20:33:52.936Z,100125.16
2018-01-02T20:36:22.018Z,100109.41
2018-01-02T20:38:50.632Z,100101.63
2018-01-02T20:41:19.084Z,100092.13
2018-01-02T20:43:47.656Z,100076.59
2018-01-02T20:46:16.824Z,100075.36
2018-01-02T20:48:45.471Z,100066.23
2018-01-02T20:51:14.176Z,100053.25
2018-01-02T20:53:42.563Z,100057.45
2018-01-02T20:56:11.650Z,100060.90
2018-01-02T20:58:39.974Z,100050.77
2018-01-02T21:01:08.263Z,100046.55
2018-01-02T21:03:37.097Z,100050.03
2018-01-02T21:06:05.822Z,100031.91
2018-01-02T21:08:34.549Z,100013.08
2018-01-02T21:11:04.407Z,100000.45
2018-01-02T21:13:33.382Z,99993.70
2018-01-02T21:16:01.780Z,99975.67
2018-01-02T21:18:30.878Z,99966.98
2018-01-02T21:20:59.740Z,99952.65
2018-01-02T21:23:28.068Z,99948.45
2018-01-02T21:25:57.142Z,99943.09
2018-01-02T21:28:25.454Z,99925.80
2018-01-02T21:30:54.732Z,99916.78
2018-01-02T21:33:23.369Z,99900.88
2018-01-02T21:35:51.681Z,99894.01
2018-01-02T21:38:20.089Z,99892.06
2018-01-02T21:40:49.197Z,99890.72
2018-01-02T21:43:17.563Z,99882.02
2018-01-02T21:45:45.980Z,99870.49
2018-01-02T21:48:15.425Z,99874.58
2018-01-02T21:50:45.194Z,99880.70
2018-01-02T21:53:13.924Z,99862.95
2018-01-02T21:55:44.310Z,99854.44
2018-01-02T21:58:16.129Z,99833.31
2018-01-02T22:00:47.920Z,99831.47
2018-01-02T22:03:17.045Z,99823.98
2018-01-02T22:06:08.738Z,99820.45
2018-01-02T22:08:37.167Z,99823.50
2018-01-02T22:11:05.767Z,99826.88
2018-01-02T22:13:36.669Z,99824.92
2018-01-02T22:16:05.127Z,99804.44
2018-01-02T22:18:33.448Z,99803.16
2018-01-02T22:21:02.539Z,99782.72
2018-01-02T22:23:31.042Z,99779.53
2018-01-02T22:25:59.387Z,99782.98
2018-01-02T22:28:27.712Z,99765.78
2018-01-02T22:30:56.121Z,99750.50
2018-01-02T22:33:24.481Z,99736.55
2018-01-02T22:35:52.860Z,99727.41
2018-01-02T22:38:21.225Z,99719.83
2018-01-02T22:40:50.355Z,99706.50
2018-01-02T22:43:18.680Z,99696.00
2018-01-02T22:45:46.987Z,99685.72
2018-01-02T22:48:16.070Z,99684.24
2018-01-02T22:50:44.461Z,99674.06
2018-01-02T22:53:12.797Z,99671.97
2018-01-02T22:55:41.103Z,99658.12
2018-01-02T22:58:09.443Z,99652.98
2018-01-02T23:00:40.595Z,99639.42
2018-01-02T23:03:08.917Z,99639.91
2018-01-02T23:05:37.250Z,99622.25
2018-01-02T23:08:05.549Z,99602.95
2018-01-02T23:10:33.861Z,99591.78
2018-01-02T23:13:02.173Z,99584.11
2018-01-02T23:15:31.461Z,99584.70
2018-01-02T23:17:59.787Z,99575.84
2018-01-02T23:20:28.144Z,99578.77
2018-01-02T23:22:57.245Z,99560.91
2018-01-02T23:25:25.619Z,99554.66
2018-01-02T23:27:54.701Z,99538.81
2018-01-02T23:30:23.041Z,99535.22
2018-01-02T23:32:51.359Z,99509.77
2018-01-02T23:35:19.673Z,99499.89
2018-01-02T23:37:48.805Z,99494.15
2018-01-02T23:40:17.152Z,99480.64
2018-01-02T23:42:46.230Z,99470.09
2018-01-02T23:45:14.560Z,99445.05
2018-01-02T23:47:42.890Z,99427.72
2018-01-02T23:50:11.195Z,99416.77
2018-01-02T23:52:40.399Z,99394.80
2018-01-02T23:55:09.497Z,99367.23
2018-01-02T23:57:38.598Z,99336.00
